createdAt,value
2019-02-14T00:00:24.630Z,88885.79
2019-02-14T00:02:51.476Z,88883.48
2019-02-14T00:05:18.390Z,88881.69
2019-02-14T00:07:45.173Z,88891.47
2019-02-14T00:10:11.961Z,88894.58
2019-02-14T00:12:38.890Z,88882.22
2019-02-14T00:15:13.491Z,88895.89
2019-02-14T00:17:40.276Z,88878.09
2019-02-14T00:20:08.510Z,88895.38
2019-02-14T00:22:35.276Z,88893.34
2019-02-14T00:25:02.404Z,88894.63
2019-02-14T00:27:29.194Z,88888.16
2019-02-14T00:29:55.989Z,88890.50
2019-02-14T00:32:22.918Z,88877.59
2019-02-14T00:34:49.695Z,88870.63
2019-02-14T00:37:16.486Z,88867.28
2019-02-14T00:39:43.402Z,88874.50
2019-02-14T00:42:10.187Z,88872.44
2019-02-14T00:44:36.957Z,88880.44
2019-02-14T00:47:03.777Z,88877.08
2019-02-14T00:49:30.571Z,88872.42
2019-02-14T00:51:57.514Z,88873.20
2019-02-14T00:54:24.315Z,88870.86
2019-02-14T00:56:51.078Z,88872.42
2019-02-14T00:59:18.007Z,88867.77
2019-02-14T01:01:44.790Z,88863.63
2019-02-14T01:04:11.645Z,88863.36
2019-02-14T01:06:38.462Z,88852.27
2019-02-14T01:09:05.557Z,88861.31
2019-02-14T01:11:32.476Z,88864.91
2019-02-14T01:13:59.273Z,88864.64
2019-02-14T01:16:26.070Z,88858.97
2019-02-14T01:18:52.921Z,88858.97
2019-02-14T01:21:19.713Z,88855.33
2019-02-14T01:23:46.497Z,88866.95
2019-02-14T01:26:13.406Z,88860.25
2019-02-14T01:28:40.207Z,88862.30
2019-02-14T01:31:06.996Z,88860.50
2019-02-14T01:33:33.811Z,88859.98
2019-02-14T01:36:00.578Z,88856.84
2019-02-14T01:38:27.409Z,88855.83
2019-02-14T01:40:54.211Z,88856.34
2019-02-14T01:43:20.994Z,88856.84
2019-02-14T01:45:47.837Z,88858.93
2019-02-14T01:48:14.612Z,88846.28
2019-02-14T01:50:41.408Z,88855.84
2019-02-14T01:53:08.335Z,88854.27
2019-02-14T01:55:35.109Z,88852.19
2019-02-14T01:58:01.902Z,88851.67
2019-02-14T02:00:28.750Z,88844.97
2019-02-14T02:02:55.550Z,88846.00
2019-02-14T02:05:22.550Z,88845.72
2019-02-14T02:07:49.333Z,88840.32
2019-02-14T02:10:16.111Z,88835.16
2019-02-14T02:12:42.934Z,88833.36
2019-02-14T02:15:13.707Z,88820.67
2019-02-14T02:17:40.648Z,88828.46
2019-02-14T02:20:08.932Z,88826.39
2019-02-14T02:22:35.719Z,88826.89
2019-02-14T02:25:03.871Z,88830.50
2019-02-14T02:27:34.285Z,88828.46
2019-02-14T02:30:01.069Z,88829.48
2019-02-14T02:32:27.885Z,88822.79
2019-02-14T02:34:54.680Z,88823.03
2019-02-14T02:37:21.538Z,88827.97
2019-02-14T02:39:48.313Z,88817.63
2019-02-14T02:42:15.096Z,88824.88
2019-02-14T02:44:42.036Z,88816.62
2019-02-14T02:47:08.822Z,88815.33
2019-02-14T02:49:35.623Z,88817.17
2019-02-14T02:52:02.438Z,88822.30
2019-02-14T02:54:29.220Z,88831.88
2019-02-14T02:56:56.158Z,88830.59
2019-02-14T02:59:22.948Z,88829.54
2019-02-14T03:01:49.724Z,88838.58
2019-02-14T03:04:16.561Z,88842.21
2019-02-14T03:06:47.137Z,88842.21
2019-02-14T03:09:13.921Z,88839.12
2019-02-14T03:11:40.747Z,88836.27
2019-02-14T03:14:07.518Z,88839.63
2019-02-14T03:16:34.324Z,88834.70
2019-02-14T03:19:01.227Z,88840.41
2019-02-14T03:21:28.004Z,88844.53
2019-02-14T03:23:54.791Z,88834.50
2019-02-14T03:26:21.715Z,88837.83
2019-02-14T03:28:48.510Z,88838.61
2019-02-14T03:31:15.315Z,88840.95
2019-02-14T03:33:42.127Z,88841.98
2019-02-14T03:36:08.908Z,88838.88
2019-02-14T03:38:35.688Z,88836.05
2019-02-14T03:41:02.518Z,88837.86
2019-02-14T03:43:29.299Z,88836.80
2019-02-14T03:45:56.078Z,88844.55
2019-02-14T03:48:23.006Z,88844.03
2019-02-14T03:50:49.794Z,88848.16
2019-02-14T03:53:16.589Z,88853.32
2019-02-14T03:55:43.518Z,88846.62
2019-02-14T03:58:10.309Z,88852.55
2019-02-14T04:00:37.093Z,88849.96
2019-02-14T04:03:03.918Z,88856.42
2019-02-14T04:05:30.694Z,88848.94
2019-02-14T04:07:57.649Z,88856.15
2019-02-14T04:10:24.432Z,88854.34
2019-02-14T04:12:51.222Z,88856.42
2019-02-14T04:15:18.139Z,88853.83
2019-02-14T04:17:44.921Z,88854.86
2019-02-14T04:20:12.511Z,88851.77
2019-02-14T04:22:39.480Z,88850.74
2019-02-14T04:25:08.182Z,88850.47
2019-02-14T04:27:35.040Z,88855.91
2019-02-14T04:30:01.877Z,88852.55
2019-02-14T04:32:28.664Z,88852.54
2019-02-14T04:34:55.577Z,88843.27
2019-02-14T04:37:22.466Z,88837.31
2019-02-14T04:39:49.257Z,88835.76
2019-02-14T04:42:16.177Z,88827.50
2019-02-14T04:44:42.958Z,88831.64
2019-02-14T04:47:09.741Z,88838.36
2019-02-14T04:49:36.752Z,88834.48
2019-02-14T04:52:08.571Z,88833.20
2019-02-14T04:54:35.377Z,88838.62
2019-02-14T04:57:02.203Z,88836.30
2019-02-14T04:59:28.983Z,88838.88
2019-02-14T05:01:55.911Z,88830.11
2019-02-14T05:04:22.704Z,88832.42
2019-02-14T05:06:54.979Z,88826.75
2019-02-14T05:09:19.112Z,88824.68
2019-02-14T05:11:48.651Z,88830.11
2019-02-14T05:14:15.433Z,88825.96
2019-02-14T05:16:42.293Z,88831.66
2019-02-14T05:19:09.095Z,88838.11
2019-02-14T05:21:35.896Z,88838.37
2019-02-14T05:24:22.479Z,88842.73
2019-02-14T05:26:49.252Z,88839.12
2019-02-14T05:29:16.166Z,88838.09
2019-02-14T05:31:42.969Z,88832.17
2019-02-14T05:34:09.767Z,88834.47
2019-02-14T05:36:36.646Z,88831.38
2019-02-14T05:39:04.337Z,88844.28
2019-02-14T05:41:31.279Z,88831.12
2019-02-14T05:43:58.088Z,88833.42
2019-02-14T05:46:24.881Z,88835.98
2019-02-14T05:48:51.859Z,88841.16
2019-02-14T05:51:18.643Z,88836.75
2019-02-14T05:53:45.430Z,88845.23
2019-02-14T05:56:12.261Z,88835.97
2019-02-14T05:58:39.107Z,88833.64
2019-02-14T06:01:05.957Z,88836.98
2019-02-14T06:03:32.748Z,88839.80
2019-02-14T06:05:59.516Z,88843.66
2019-02-14T06:08:26.453Z,88845.17
2019-02-14T06:10:53.267Z,88854.72
2019-02-14T06:13:20.051Z,88853.18
2019-02-14T06:15:46.960Z,88854.45
2019-02-14T06:18:13.753Z,88863.23
2019-02-14T06:20:40.613Z,88859.61
2019-02-14T06:23:07.391Z,88862.47
2019-02-14T06:25:34.176Z,88860.90
2019-02-14T06:28:00.985Z,88861.16
2019-02-14T06:30:28.679Z,88861.41
2019-02-14T06:32:55.655Z,88868.39
2019-02-14T06:35:22.455Z,88866.30
2019-02-14T06:37:49.231Z,88863.97
2019-02-14T06:40:16.069Z,88876.04
2019-02-14T06:42:42.843Z,88873.98
2019-02-14T06:45:12.696Z,88879.92
2019-02-14T06:47:39.468Z,88884.05
2019-02-14T06:50:07.878Z,88886.87
2019-02-14T06:52:34.703Z,88885.30
2019-02-14T06:55:01.476Z,88889.42
2019-02-14T06:57:28.317Z,88900.22
2019-02-14T06:59:55.111Z,88887.63
2019-02-14T07:02:21.900Z,88894.27
2019-02-14T07:04:48.802Z,88898.66
2019-02-14T07:07:18.551Z,88909.25
2019-02-14T07:09:44.193Z,88900.22
2019-02-14T07:12:11.055Z,88899.69
2019-02-14T07:14:37.846Z,88900.16
2019-02-14T07:17:04.771Z,88900.94
2019-02-14T07:19:31.553Z,88905.05
2019-02-14T07:21:59.195Z,88904.50
2019-02-14T07:24:26.131Z,88900.09
2019-02-14T07:26:52.972Z,88897.06
2019-02-14T07:29:19.762Z,88904.56
2019-02-14T07:31:46.608Z,88901.23
2019-02-14T07:34:13.402Z,88905.11
2019-02-14T07:36:40.325Z,88903.30
2019-02-14T07:39:07.106Z,88899.20
2019-02-14T07:41:33.885Z,88895.58
2019-02-14T07:44:00.716Z,88892.00
2019-02-14T07:46:27.491Z,88892.03
2019-02-14T07:48:54.346Z,88895.98
2019-02-14T07:51:21.134Z,88899.86
2019-02-14T07:53:47.920Z,88900.92
2019-02-14T07:56:14.756Z,88891.66
2019-02-14T07:58:41.559Z,88896.05
2019-02-14T08:01:08.340Z,88894.76
2019-02-14T08:03:35.169Z,88895.84
2019-02-14T08:06:01.966Z,88889.91
2019-02-14T08:08:28.805Z,88888.89
2019-02-14T08:10:55.627Z,88888.13
2019-02-14T08:13:22.428Z,88882.48
2019-02-14T08:15:49.303Z,88886.09
2019-02-14T08:18:16.138Z,88878.38
2019-02-14T08:20:42.878Z,88881.46
2019-02-14T08:23:09.723Z,88877.84
2019-02-14T08:25:36.506Z,88887.91
2019-02-14T08:28:03.301Z,88895.16
2019-02-14T08:30:30.123Z,88893.09
2019-02-14T08:32:56.913Z,88895.64
2019-02-14T08:35:23.775Z,88872.39
2019-02-14T08:37:50.553Z,88872.86
2019-02-14T08:40:30.050Z,88868.20
2019-02-14T08:42:58.582Z,88865.05
2019-02-14T08:45:25.412Z,88855.45
2019-02-14T08:47:52.339Z,88853.86
2019-02-14T08:50:19.124Z,88850.70
2019-02-14T08:52:46.852Z,88849.89
2019-02-14T08:55:13.678Z,88845.41
2019-02-14T08:57:40.465Z,88840.95
2019-02-14T09:00:15.855Z,88834.46
2019-02-14T09:02:42.633Z,88837.78
2019-02-14T09:05:09.431Z,88834.34
2019-02-14T09:07:36.277Z,88836.37
2019-02-14T09:10:07.766Z,88837.32
2019-02-14T09:12:35.651Z,88836.20
2019-02-14T09:15:05.346Z,88834.04
2019-02-14T09:17:32.144Z,88837.82
2019-02-14T09:19:58.932Z,88839.77
2019-02-14T09:22:25.778Z,88840.73
2019-02-14T09:24:52.579Z,88838.89
2019-02-14T09:27:19.349Z,88836.00
2019-02-14T09:29:46.253Z,88837.44
2019-02-14T09:32:13.048Z,88834.47
2019-02-14T09:34:39.823Z,88829.71
2019-02-14T09:37:06.678Z,88832.95
2019-02-14T09:39:40.811Z,88831.55
2019-02-14T09:42:02.050Z,88829.38
2019-02-14T09:44:28.910Z,88828.48
2019-02-14T09:46:55.710Z,88825.20
2019-02-14T09:49:22.489Z,88825.31
2019-02-14T09:51:49.328Z,88818.14
2019-02-14T09:54:16.155Z,88813.87
2019-02-14T09:56:42.996Z,88811.95
2019-02-14T09:59:09.781Z,88808.22
2019-02-14T10:01:36.562Z,88807.62
2019-02-14T10:04:03.498Z,88815.29
2019-02-14T10:06:36.454Z,88810.28
2019-02-14T10:09:00.644Z,88806.54
2019-02-14T10:11:27.606Z,88805.39
2019-02-14T10:13:54.440Z,88803.02
2019-02-14T10:16:21.250Z,88792.92
2019-02-14T10:18:48.102Z,88795.33
2019-02-14T10:21:14.881Z,88789.27
2019-02-14T10:23:41.678Z,88787.55
2019-02-14T10:26:08.540Z,88786.73
2019-02-14T10:28:35.343Z,88789.55
2019-02-14T10:31:02.112Z,88781.75
2019-02-14T10:33:28.963Z,88783.92
2019-02-14T10:35:55.759Z,88785.50
2019-02-14T10:38:22.858Z,88784.50
2019-02-14T10:40:49.661Z,88787.97
2019-02-14T10:43:16.451Z,88777.16
2019-02-14T10:45:43.274Z,88777.48
2019-02-14T10:48:10.073Z,88775.79
2019-02-14T10:50:39.235Z,88767.05
2019-02-14T10:53:08.013Z,88775.19
2019-02-14T10:55:34.851Z,88774.36
2019-02-14T10:58:07.930Z,88772.91
2019-02-14T11:00:30.714Z,88773.48
2019-02-14T11:02:57.498Z,88762.95
2019-02-14T11:05:24.433Z,88769.11
2019-02-14T11:07:51.211Z,88771.36
2019-02-14T11:10:17.998Z,88763.39
2019-02-14T11:12:44.939Z,88764.91
2019-02-14T11:15:20.793Z,88762.45
2019-02-14T11:17:49.034Z,88757.88
2019-02-14T11:20:17.845Z,88750.58
2019-02-14T11:22:44.614Z,88749.16
2019-02-14T11:25:16.880Z,88745.50
2019-02-14T11:27:44.043Z,88749.77
2019-02-14T11:30:13.245Z,88740.99
2019-02-14T11:32:40.177Z,88732.86
2019-02-14T11:35:09.126Z,88744.00
2019-02-14T11:37:35.905Z,88743.03
2019-02-14T11:40:04.544Z,88739.75
2019-02-14T11:42:31.332Z,88732.41
2019-02-14T11:44:58.182Z,88728.94
2019-02-14T11:47:24.980Z,88728.04
2019-02-14T11:49:51.762Z,88724.74
2019-02-14T11:52:18.617Z,88732.25
2019-02-14T11:54:45.476Z,88727.01
2019-02-14T11:57:12.245Z,88727.02
2019-02-14T11:59:40.527Z,88731.20
2019-02-14T12:02:07.417Z,88718.64
2019-02-14T12:04:34.194Z,88720.06
2019-02-14T12:07:01.011Z,88715.49
2019-02-14T12:09:27.786Z,88707.92
2019-02-14T12:11:54.693Z,88708.22
2019-02-14T12:14:21.480Z,88701.92
2019-02-14T12:16:48.312Z,88696.58
2019-02-14T12:19:15.259Z,88686.70
2019-02-14T12:21:42.055Z,88686.21
2019-02-14T12:24:08.830Z,88681.02
2019-02-14T12:26:35.809Z,88679.69
2019-02-14T12:29:02.570Z,88685.03
2019-02-14T12:31:29.363Z,88678.56
2019-02-14T12:33:56.279Z,88683.82
2019-02-14T12:36:23.065Z,88684.91
2019-02-14T12:38:49.838Z,88680.98
2019-02-14T12:41:16.770Z,88680.59
2019-02-14T12:43:43.577Z,88682.16
2019-02-14T12:46:10.310Z,88679.73
2019-02-14T12:48:37.233Z,88664.98
2019-02-14T12:51:04.013Z,88662.48
2019-02-14T12:53:30.800Z,88659.03
2019-02-14T12:55:57.760Z,88654.13
2019-02-14T12:58:24.531Z,88650.42
2019-02-14T13:00:51.340Z,88641.34
2019-02-14T13:03:18.181Z,88637.84
2019-02-14T13:05:45.179Z,88630.64
2019-02-14T13:08:12.062Z,88625.38
2019-02-14T13:10:38.872Z,88627.44
2019-02-14T13:13:05.648Z,88621.27
2019-02-14T13:15:32.886Z,88623.06
2019-02-14T13:17:59.705Z,88618.11
2019-02-14T13:20:26.486Z,88624.88
2019-02-14T13:22:53.313Z,88624.98
2019-02-14T13:25:20.101Z,88620.66
2019-02-14T13:27:46.953Z,88623.37
2019-02-14T13:30:20.719Z,88622.72
2019-02-14T13:32:47.600Z,88618.83
2019-02-14T13:35:14.466Z,88613.61
2019-02-14T13:37:41.334Z,88622.00
2019-02-14T13:40:08.080Z,88618.06
2019-02-14T13:42:35.015Z,88621.74
2019-02-14T13:45:01.811Z,88626.85
2019-02-14T13:47:28.593Z,88623.00
2019-02-14T13:49:55.453Z,88622.37
2019-02-14T13:52:22.246Z,88625.54
2019-02-14T13:54:49.036Z,88630.05
2019-02-14T13:57:15.853Z,88623.91
2019-02-14T13:59:42.631Z,88626.27
2019-02-14T14:02:09.456Z,88624.24
2019-02-14T14:04:36.245Z,88615.55
2019-02-14T14:07:03.013Z,88618.10
2019-02-14T14:09:38.233Z,88615.83
2019-02-14T14:11:58.439Z,88622.92
2019-02-14T14:14:36.379Z,88619.59
2019-02-14T14:17:09.817Z,88615.67
2019-02-14T14:19:42.980Z,88616.11
2019-02-14T14:22:12.497Z,88617.39
2019-02-14T14:24:44.510Z,88615.73
2019-02-14T14:27:15.179Z,88620.61
2019-02-14T14:29:49.599Z,88616.84
2019-02-14T14:32:16.389Z,88616.03
2019-02-14T14:34:44.275Z,88619.30
2019-02-14T14:37:12.747Z,88620.08
2019-02-14T14:39:47.588Z,88613.11
2019-02-14T14:42:08.225Z,88611.96
2019-02-14T14:44:35.008Z,88613.29
2019-02-14T14:47:01.818Z,88606.06
2019-02-14T14:49:28.652Z,88606.69
2019-02-14T14:51:55.447Z,88608.56
2019-02-14T14:54:22.410Z,88606.77
2019-02-14T14:56:49.186Z,88602.66
2019-02-14T14:59:15.992Z,88603.80
2019-02-14T15:01:42.907Z,88602.94
2019-02-14T15:04:09.702Z,88606.86
2019-02-14T15:06:36.482Z,88602.63
2019-02-14T15:09:05.202Z,88612.64
2019-02-14T15:11:31.984Z,88600.58
2019-02-14T15:14:10.766Z,88611.03
2019-02-14T15:16:36.728Z,88612.16
2019-02-14T15:19:03.642Z,88607.40
2019-02-14T15:21:30.507Z,88610.64
2019-02-14T15:23:57.315Z,88610.72
2019-02-14T15:26:24.083Z,88615.23
2019-02-14T15:28:51.059Z,88607.78
2019-02-14T15:31:17.847Z,88604.33
2019-02-14T15:33:44.634Z,88605.23
2019-02-14T15:36:11.464Z,88601.46
2019-02-14T15:38:38.232Z,88610.02
2019-02-14T15:41:05.091Z,88606.09
2019-02-14T15:43:31.896Z,88603.16
2019-02-14T15:45:58.688Z,88603.61
2019-02-14T15:48:25.640Z,88602.75
2019-02-14T15:50:54.365Z,88602.72
2019-02-14T15:53:21.560Z,88604.94
2019-02-14T15:55:48.654Z,88611.58
2019-02-14T15:58:15.433Z,88612.08
2019-02-14T16:00:42.231Z,88612.39
2019-02-14T16:03:09.072Z,88613.45
2019-02-14T16:05:38.491Z,88622.33
2019-02-14T16:08:06.384Z,88621.70
2019-02-14T16:10:33.207Z,88620.52
2019-02-14T16:13:01.810Z,88623.01
2019-02-14T16:15:30.542Z,88620.16
2019-02-14T16:17:58.919Z,88628.81
2019-02-14T16:20:25.948Z,88641.44
2019-02-14T16:22:52.832Z,88640.88
2019-02-14T16:25:19.629Z,88651.95
2019-02-14T16:27:48.096Z,88659.97
2019-02-14T16:30:16.603Z,88657.42
2019-02-14T16:32:43.507Z,88664.52
2019-02-14T16:35:10.440Z,88660.50
2019-02-14T16:37:37.260Z,88667.70
2019-02-14T16:40:07.957Z,88667.23
2019-02-14T16:42:34.879Z,88679.55
2019-02-14T16:45:01.667Z,88684.34
2019-02-14T16:47:28.470Z,88688.02
2019-02-14T16:49:56.584Z,88689.55
2019-02-14T16:52:23.379Z,88695.84
2019-02-14T16:54:50.213Z,88703.22
2019-02-14T16:57:17.149Z,88701.24
2019-02-14T16:59:43.921Z,88703.95
2019-02-14T17:02:10.751Z,88706.48
2019-02-14T17:04:37.590Z,88703.55
2019-02-14T17:07:04.384Z,88714.36
2019-02-14T17:09:31.303Z,88719.14
2019-02-14T17:11:58.089Z,88725.98
2019-02-14T17:14:24.879Z,88722.48
2019-02-14T17:16:51.808Z,88728.34
2019-02-14T17:19:18.729Z,88726.47
2019-02-14T17:21:45.571Z,88724.17
2019-02-14T17:24:12.445Z,88742.65
2019-02-14T17:26:39.294Z,88744.63
2019-02-14T17:29:06.072Z,88746.31
2019-02-14T17:31:32.972Z,88748.27
2019-02-14T17:33:59.760Z,88746.34
2019-02-14T17:36:26.639Z,88751.63
2019-02-14T17:38:53.673Z,88754.67
2019-02-14T17:41:20.520Z,88760.39
2019-02-14T17:43:47.427Z,88777.62
2019-02-14T17:46:14.278Z,88778.77
2019-02-14T17:48:41.074Z,88782.51
2019-02-14T17:51:08.053Z,88783.59
2019-02-14T17:53:34.865Z,88783.70
2019-02-14T17:56:01.705Z,88783.50
2019-02-14T17:58:28.738Z,88783.76
2019-02-14T18:00:55.766Z,88780.41
2019-02-14T18:03:22.985Z,88790.55
2019-02-14T18:05:49.922Z,88789.09
2019-02-14T18:08:16.897Z,88788.64
2019-02-14T18:10:43.959Z,88791.20
2019-02-14T18:13:10.898Z,88787.34
2019-02-14T18:15:37.839Z,88775.98
2019-02-14T18:18:05.009Z,88780.91
2019-02-14T18:20:32.063Z,88781.83
2019-02-14T18:22:59.024Z,88785.46
2019-02-14T18:25:26.150Z,88781.89
2019-02-14T18:27:53.196Z,88785.27
2019-02-14T18:30:20.195Z,88778.28
2019-02-14T18:32:47.360Z,88781.20
2019-02-14T18:35:14.295Z,88768.55
2019-02-14T18:37:41.416Z,88779.25
2019-02-14T18:40:09.672Z,88778.86
2019-02-14T18:42:40.818Z,88778.88
2019-02-14T18:45:11.255Z,88771.94
2019-02-14T18:47:39.884Z,88774.27
2019-02-14T18:50:11.733Z,88778.72
2019-02-14T18:52:38.570Z,88779.49
2019-02-14T18:55:08.528Z,88786.30
2019-02-14T18:57:35.460Z,88788.69
2019-02-14T19:00:05.461Z,88787.39
2019-02-14T19:02:32.507Z,88785.03
2019-02-14T19:04:59.656Z,88781.25
2019-02-14T19:07:26.797Z,88784.91
2019-02-14T19:09:53.753Z,88783.64
2019-02-14T19:12:20.697Z,88791.45
2019-02-14T19:14:47.803Z,88786.08
2019-02-14T19:17:14.846Z,88782.53
2019-02-14T19:19:41.877Z,88782.58
2019-02-14T19:22:08.968Z,88783.18
2019-02-14T19:24:36.040Z,88774.13
2019-02-14T19:27:03.193Z,88779.36
2019-02-14T19:29:30.493Z,88770.81
2019-02-14T19:31:57.439Z,88773.89
2019-02-14T19:34:24.467Z,88772.59
2019-02-14T19:36:51.581Z,88765.41
2019-02-14T19:39:18.623Z,88763.05
2019-02-14T19:41:45.671Z,88762.30
2019-02-14T19:44:12.755Z,88762.25
2019-02-14T19:46:39.893Z,88751.41
2019-02-14T19:49:07.070Z,88758.16
2019-02-14T19:51:34.209Z,88756.86
2019-02-14T19:54:01.355Z,88758.18
2019-02-14T19:56:28.412Z,88761.59
2019-02-14T19:58:55.433Z,88760.84
2019-02-14T20:01:22.466Z,88761.63
2019-02-14T20:03:49.400Z,88758.05
2019-02-14T20:06:16.587Z,88761.20
2019-02-14T20:08:43.437Z,88754.82
2019-02-14T20:11:10.499Z,88749.94
2019-02-14T20:13:37.522Z,88747.62
2019-02-14T20:16:04.915Z,88749.73
2019-02-14T20:18:32.397Z,88762.20
2019-02-14T20:20:59.313Z,88757.83
2019-02-14T20:23:26.312Z,88762.80
2019-02-14T20:25:53.409Z,88763.56
2019-02-14T20:28:20.221Z,88758.25
2019-02-14T20:30:47.245Z,88751.24
2019-02-14T20:33:14.243Z,88758.25
2019-02-14T20:35:41.177Z,88755.96
2019-02-14T20:38:08.118Z,88757.77
2019-02-14T20:40:34.916Z,88761.42
2019-02-14T20:43:01.720Z,88759.66
2019-02-14T20:45:28.550Z,88762.00
2019-02-14T20:47:56.984Z,88769.56
2019-02-14T20:50:23.932Z,88769.59
2019-02-14T20:52:50.663Z,88771.67
2019-02-14T20:55:24.861Z,88777.12
2019-02-14T20:57:51.706Z,88770.16
2019-02-14T21:00:18.478Z,88774.58
2019-02-14T21:02:45.431Z,88778.48
2019-02-14T21:05:12.171Z,88786.81
2019-02-14T21:07:38.913Z,88792.25
2019-02-14T21:10:06.437Z,88789.47
2019-02-14T21:12:33.268Z,88789.78
2019-02-14T21:14:59.995Z,88785.92
2019-02-14T21:17:26.785Z,88791.88
2019-02-14T21:19:54.962Z,88798.61
2019-02-14T21:22:21.706Z,88795.30
2019-02-14T21:24:48.605Z,88797.09
2019-02-14T21:27:15.311Z,88795.56
2019-02-14T21:29:42.037Z,88796.59
2019-02-14T21:32:08.911Z,88791.70
2019-02-14T21:34:35.640Z,88791.44
2019-02-14T21:37:02.378Z,88794.58
2019-02-14T21:39:29.191Z,88806.75
2019-02-14T21:42:17.591Z,88810.23
2019-02-14T21:44:24.459Z,88808.11
2019-02-14T21:46:51.248Z,88805.23
2019-02-14T21:49:17.990Z,88804.73
2019-02-14T21:51:44.724Z,88801.88
2019-02-14T21:54:16.701Z,88798.27
2019-02-14T21:56:40.119Z,88804.72
2019-02-14T21:59:06.862Z,88796.42
2019-02-14T22:01:33.659Z,88800.56
2019-02-14T22:04:00.348Z,88800.56
2019-02-14T22:06:27.224Z,88804.94
2019-02-14T22:08:53.932Z,88807.52
2019-02-14T22:11:20.696Z,88806.22
2019-02-14T22:13:47.551Z,88803.64
2019-02-14T22:16:14.267Z,88796.17
2019-02-14T22:18:40.986Z,88801.64
2019-02-14T22:21:07.774Z,88799.38
2019-02-14T22:23:34.507Z,88800.17
2019-02-14T22:26:06.155Z,88801.77
2019-02-14T22:28:36.904Z,88797.11
2019-02-14T22:31:03.646Z,88799.70
2019-02-14T22:33:30.436Z,88795.33
2019-02-14T22:35:57.193Z,88799.20
2019-02-14T22:38:23.911Z,88805.16
2019-02-14T22:40:50.705Z,88805.16
2019-02-14T22:43:17.516Z,88797.67
2019-02-14T22:45:44.244Z,88806.72
2019-02-14T22:48:11.051Z,88808.26
2019-02-14T22:50:37.792Z,88801.30
2019-02-14T22:53:04.519Z,88801.01
2019-02-14T22:55:31.300Z,88803.86
2019-02-14T22:57:58.035Z,88796.61
2019-02-14T23:00:47.178Z,88805.16
2019-02-14T23:03:13.995Z,88804.64
2019-02-14T23:05:40.713Z,88807.81
2019-02-14T23:08:07.591Z,88802.88
2019-02-14T23:10:34.303Z,88809.33
2019-02-14T23:13:01.048Z,88812.20
2019-02-14T23:15:27.860Z,88813.25
2019-02-14T23:17:54.609Z,88815.84
2019-02-14T23:20:21.332Z,88810.41
2019-02-14T23:22:48.111Z,88818.70
2019-02-14T23:25:14.844Z,88811.97
2019-02-14T23:27:41.752Z,88805.79
2019-02-14T23:30:10.774Z,88805.83
2019-02-14T23:32:37.515Z,88804.50
2019-02-14T23:35:04.283Z,88806.56
2019-02-14T23:37:31.026Z,88803.98
2019-02-14T23:39:57.759Z,88801.91
2019-02-14T23:42:24.624Z,88797.27
2019-02-14T23:44:51.333Z,88793.66
2019-02-14T23:47:18.076Z,88793.39
2019-02-14T23:49:44.950Z,88790.80
2019-02-14T23:52:11.624Z,88782.59
2019-02-14T23:54:38.373Z,88789.79
2019-02-14T23:57:05.243Z,88790.30
2019-02-14T23:59:31.984Z,88783.34
